Time;durP1;ratioP1;P1;durP2;ratioP2;P2;SDS_P1;SDS_P2;PMS_P1;PMS_P2;Temp;Humidity;BMP_temperature;BMP_pressure;BME280_temperature;BME280_humidity;BME280_pressure;Samples;Min_cycle;Max_cycle;Signal;HPM_P1;HPM_P2
2021/05/04 00:01:47;;;;;;;3.83;3.40;;;10.10;99.90;;;;;;5064764;28;20199;-63
2021/05/04 00:04:15;;;;;;;7.77;3.50;;;10.00;99.90;;;;;;5065545;28;20291;-63
2021/05/04 00:06:42;;;;;;;6.40;3.80;;;9.90;99.90;;;;;;5072506;28;20698;-63
2021/05/04 00:09:11;;;;;;;8.23;3.57;;;9.90;99.90;;;;;;5066708;28;20276;-63
2021/05/04 00:11:38;;;;;;;5.40;3.60;;;9.80;99.90;;;;;;5065636;28;20283;-62
2021/05/04 00:14:05;;;;;;;5.33;3.90;;;9.70;99.90;;;;;;5063446;28;20249;-62
2021/05/04 00:16:33;;;;;;;5.30;3.90;;;9.60;99.90;;;;;;5066634;28;20192;-63
2021/05/04 00:19:00;;;;;;;7.17;4.27;;;9.50;99.90;;;;;;5067136;28;20646;-63
2021/05/04 00:21:28;;;;;;;5.30;3.90;;;9.40;99.90;;;;;;5063299;28;20724;-63
2021/05/04 00:23:55;;;;;;;4.80;4.17;;;9.40;99.90;;;;;;5066873;28;20283;-63
2021/05/04 00:26:24;;;;;;;4.40;4.10;;;9.30;99.90;;;;;;5061654;28;20274;-62
2021/05/04 00:28:51;;;;;;;5.50;4.93;;;9.20;99.90;;;;;;5062229;28;20552;-63
2021/05/04 00:31:19;;;;;;;4.47;4.17;;;9.00;99.90;;;;;;5065235;28;20811;-63
2021/05/04 00:33:46;;;;;;;6.03;4.10;;;8.90;99.90;;;;;;5068012;28;20227;-63
2021/05/04 00:36:13;;;;;;;4.60;4.30;;;8.80;99.90;;;;;;5066477;28;20196;-62
2021/05/04 00:38:41;;;;;;;6.17;4.60;;;8.80;99.90;;;;;;5075352;28;20195;-63
2021/05/04 00:41:08;;;;;;;5.90;4.30;;;8.70;99.90;;;;;;5074909;28;20196;-63
2021/05/04 00:43:36;;;;;;;4.67;4.27;;;8.60;99.90;;;;;;5065687;28;20238;-62
2021/05/04 00:46:04;;;;;;;9.30;4.47;;;8.60;99.90;;;;;;5063911;28;20682;-63
2021/05/04 00:48:31;;;;;;;4.57;4.20;;;8.50;99.90;;;;;;5068345;28;20258;-60
2021/05/04 00:50:58;;;;;;;6.63;4.10;;;8.50;99.90;;;;;;5064154;28;20200;-63
2021/05/04 00:53:26;;;;;;;4.77;4.30;;;8.50;99.90;;;;;;5070438;28;20293;-63
2021/05/04 00:55:54;;;;;;;4.70;4.30;;;8.50;99.90;;;;;;5069957;28;20663;-62
2021/05/04 00:58:21;;;;;;;6.00;4.70;;;8.40;99.90;;;;;;5068101;28;20265;-63
2021/05/04 01:00:50;;;;;;;4.93;4.27;;;8.40;99.90;;;;;;5066245;28;20255;-62
2021/05/04 01:03:18;;;;;;;9.73;4.60;;;8.40;99.90;;;;;;5067211;28;20201;-63
2021/05/04 01:05:45;;;;;;;6.67;4.70;;;8.40;99.90;;;;;;5064770;28;20226;-62
2021/05/04 01:08:13;;;;;;;6.87;3.87;;;8.40;99.90;;;;;;5066415;28;20790;-62
2021/05/04 01:10:40;;;;;;;7.53;3.90;;;8.40;99.90;;;;;;5050467;28;20223;-62
2021/05/04 01:13:08;;;;;;;5.90;4.50;;;8.40;99.90;;;;;;5064507;28;20257;-62
2021/05/04 01:15:36;;;;;;;5.03;4.13;;;8.40;99.90;;;;;;5068650;28;20216;-62
2021/05/04 01:18:04;;;;;;;5.20;3.80;;;8.50;99.90;;;;;;5077600;28;20728;-62
2021/05/04 01:20:32;;;;;;;3.67;3.40;;;8.50;99.90;;;;;;5062977;28;20219;-62
2021/05/04 01:23:01;;;;;;;7.50;3.40;;;8.50;99.90;;;;;;5068821;28;20191;-62
2021/05/04 01:25:28;;;;;;;3.60;3.40;;;8.50;99.90;;;;;;5065087;28;20731;-62
2021/05/04 01:27:55;;;;;;;4.20;3.60;;;8.50;99.90;;;;;;5066730;28;20714;-59
2021/05/04 01:30:24;;;;;;;6.93;3.60;;;8.50;99.90;;;;;;5068306;28;20200;-63
2021/05/04 01:32:51;;;;;;;7.90;3.20;;;8.50;99.90;;;;;;5067472;28;20200;-63
2021/05/04 01:35:19;;;;;;;3.97;3.67;;;8.50;99.90;;;;;;5065965;28;20247;-62
2021/05/04 01:37:47;;;;;;;5.07;3.50;;;8.60;99.90;;;;;;5067890;28;20255;-63
2021/05/04 01:40:16;;;;;;;11.90;3.63;;;8.60;99.90;;;;;;5067296;28;20212;-62
2021/05/04 01:42:45;;;;;;;3.43;3.30;;;8.60;99.90;;;;;;5067481;28;20275;-63
2021/05/04 01:45:14;;;;;;;3.53;3.23;;;8.60;99.90;;;;;;5061665;28;20192;-63
2021/05/04 01:47:42;;;;;;;3.63;3.33;;;8.70;99.90;;;;;;5068170;28;20310;-63
2021/05/04 01:50:11;;;;;;;10.80;3.50;;;8.70;99.90;;;;;;5065828;28;20191;-63
2021/05/04 01:52:38;;;;;;;3.10;2.97;;;8.70;99.90;;;;;;5068526;28;20194;-62
2021/05/04 01:55:07;;;;;;;3.40;3.20;;;8.80;99.90;;;;;;5067809;28;20736;-62
2021/05/04 01:57:35;;;;;;;3.87;2.90;;;8.90;99.90;;;;;;5064910;28;20188;-63
2021/05/04 02:00:04;;;;;;;2.73;2.53;;;9.00;99.90;;;;;;5070793;28;20295;-62
2021/05/04 02:02:32;;;;;;;8.43;3.03;;;9.00;99.90;;;;;;5068360;28;20207;-64
2021/05/04 02:04:59;;;;;;;3.43;3.00;;;9.00;99.90;;;;;;5079181;28;20192;-62
2021/05/04 02:07:27;;;;;;;4.77;2.77;;;9.00;99.90;;;;;;5074191;28;20239;-62
2021/05/04 02:09:55;;;;;;;3.17;2.47;;;9.00;99.90;;;;;;5068188;28;20196;-63
2021/05/04 02:12:22;;;;;;;3.13;2.90;;;9.00;99.90;;;;;;5068868;28;20291;-63
2021/05/04 02:14:50;;;;;;;2.97;2.80;;;9.10;99.90;;;;;;5075542;28;20772;-62
2021/05/04 02:17:18;;;;;;;2.60;2.50;;;9.10;99.90;;;;;;5066250;28;20720;-63
2021/05/04 02:19:46;;;;;;;3.13;2.73;;;9.10;99.90;;;;;;5067151;28;20706;-65
2021/05/04 02:22:15;;;;;;;4.03;2.97;;;9.10;99.90;;;;;;5064839;28;20619;-62
2021/05/04 02:24:42;;;;;;;3.20;2.90;;;9.20;99.90;;;;;;5059669;28;20651;-62
2021/05/04 02:27:09;;;;;;;4.10;2.63;;;9.20;99.90;;;;;;5060735;28;20591;-62
2021/05/04 02:29:37;;;;;;;2.70;2.60;;;9.20;99.90;;;;;;5062508;28;20195;-63
2021/05/04 02:32:06;;;;;;;3.23;2.67;;;9.20;99.90;;;;;;5064634;28;20220;-62
2021/05/04 02:34:33;;;;;;;2.80;2.60;;;9.20;99.90;;;;;;5067492;28;20659;-63
2021/05/04 02:37:01;;;;;;;3.00;2.80;;;9.30;99.90;;;;;;5065353;28;20273;-63
2021/05/04 02:39:28;;;;;;;2.80;2.57;;;9.30;99.90;;;;;;5064825;28;20643;-62
2021/05/04 02:41:55;;;;;;;5.47;2.63;;;9.30;99.90;;;;;;5065236;28;20250;-63
2021/05/04 02:44:23;;;;;;;3.13;2.50;;;9.40;99.90;;;;;;5069298;28;20563;-62
2021/05/04 02:46:50;;;;;;;2.97;2.60;;;9.40;99.90;;;;;;5064331;28;20727;-62
2021/05/04 02:49:19;;;;;;;3.90;2.73;;;9.50;99.90;;;;;;5065345;28;20258;-63
2021/05/04 02:51:46;;;;;;;2.57;2.30;;;9.40;99.90;;;;;;5067302;28;20219;-63
2021/05/04 02:54:13;;;;;;;2.37;2.27;;;9.50;99.90;;;;;;5068383;28;20200;-63
2021/05/04 02:56:41;;;;;;;2.30;2.20;;;9.60;99.90;;;;;;5064376;28;20207;-62
2021/05/04 02:59:08;;;;;;;2.80;2.07;;;9.60;99.90;;;;;;5066059;28;20226;-62
2021/05/04 03:01:36;;;;;;;5.37;2.43;;;9.60;99.90;;;;;;5066413;28;20860;-63
2021/05/04 03:04:04;;;;;;;2.70;2.43;;;9.60;99.90;;;;;;5067459;28;20192;-63
2021/05/04 03:06:32;;;;;;;4.30;2.30;;;9.60;99.90;;;;;;5065263;28;20948;-63
2021/05/04 03:08:59;;;;;;;2.07;2.07;;;9.60;99.90;;;;;;5052223;28;20216;-62
2021/05/04 03:11:26;;;;;;;2.47;2.37;;;9.60;99.90;;;;;;5064673;28;20304;-63
2021/05/04 03:13:54;;;;;;;2.40;2.20;;;9.60;99.90;;;;;;5066386;28;20643;-63
2021/05/04 03:16:22;;;;;;;2.17;2.00;;;9.60;99.90;;;;;;5063557;28;20188;-63
2021/05/04 03:18:49;;;;;;;3.80;2.47;;;9.70;99.90;;;;;;5064608;28;20221;-62
2021/05/04 03:21:17;;;;;;;4.37;2.33;;;9.70;99.90;;;;;;5076851;28;20641;-63
2021/05/04 03:23:47;;;;;;;2.47;2.30;;;9.70;99.90;;;;;;5064189;28;20684;-63
2021/05/04 03:26:14;;;;;;;2.70;2.50;;;9.60;99.90;;;;;;5066190;28;20613;-62
2021/05/04 03:28:42;;;;;;;2.40;2.30;;;9.60;99.90;;;;;;5069054;28;20219;-62
2021/05/04 03:31:10;;;;;;;2.70;2.50;;;9.60;99.90;;;;;;5069388;28;20231;-63
2021/05/04 03:33:46;;;;;;;2.80;2.60;;;9.60;99.90;;;;;;5060022;28;20203;-63
2021/05/04 03:36:14;;;;;;;3.80;2.30;;;9.60;99.90;;;;;;5063816;28;20196;-62
2021/05/04 03:38:42;;;;;;;2.50;2.40;;;9.70;99.90;;;;;;5063853;28;20184;-63
2021/05/04 03:41:10;;;;;;;2.73;2.53;;;9.70;99.90;;;;;;5060833;28;20218;-63
2021/05/04 03:43:38;;;;;;;2.43;2.33;;;9.70;99.90;;;;;;5065083;28;20187;-62
2021/05/04 03:46:05;;;;;;;2.37;2.23;;;9.70;99.90;;;;;;5062049;28;20272;-63
2021/05/04 03:48:33;;;;;;;3.53;2.30;;;9.70;99.90;;;;;;5060660;28;20358;-63
2021/05/04 03:51:00;;;;;;;2.70;2.17;;;9.70;99.90;;;;;;5064464;28;20204;-63
2021/05/04 03:53:27;;;;;;;2.90;2.70;;;9.70;99.90;;;;;;5064943;28;20223;-62
2021/05/04 03:55:55;;;;;;;3.97;2.63;;;9.70;99.90;;;;;;5067306;28;20187;-62
2021/05/04 03:58:23;;;;;;;2.60;2.50;;;9.60;99.90;;;;;;5060986;28;20559;-63
2021/05/04 04:00:50;;;;;;;4.17;2.40;;;9.30;99.90;;;;;;5065752;28;20294;-63
2021/05/04 04:03:18;;;;;;;3.10;2.80;;;9.20;99.90;;;;;;5065301;28;20287;-63
2021/05/04 04:05:45;;;;;;;4.70;2.80;;;9.10;99.90;;;;;;5066663;28;20200;-63
2021/05/04 04:08:12;;;;;;;2.93;2.70;;;9.00;99.90;;;;;;5063918;28;20204;-63
2021/05/04 04:10:41;;;;;;;2.60;2.50;;;8.90;99.90;;;;;;5069282;28;20231;-63
2021/05/04 04:13:08;;;;;;;3.03;2.80;;;8.90;99.90;;;;;;5069854;28;20234;-63
2021/05/04 04:15:37;;;;;;;2.83;2.63;;;8.90;99.90;;;;;;5072141;28;20201;-63
2021/05/04 04:18:04;;;;;;;3.77;3.00;;;8.80;99.90;;;;;;5071585;28;20725;-62
2021/05/04 04:20:32;;;;;;;3.53;2.60;;;8.80;99.90;;;;;;5068922;28;20188;-63
2021/05/04 04:22:59;;;;;;;3.40;3.10;;;8.80;99.90;;;;;;5067190;28;20295;-62
2021/05/04 04:25:26;;;;;;;2.80;2.70;;;8.80;99.90;;;;;;5069825;28;20228;-62
2021/05/04 04:27:54;;;;;;;5.07;3.00;;;8.80;99.90;;;;;;5068183;28;20741;-63
2021/05/04 04:30:24;;;;;;;3.10;2.90;;;8.80;99.90;;;;;;5067424;28;20660;-65
2021/05/04 04:32:52;;;;;;;4.37;3.17;;;8.80;99.90;;;;;;5068575;28;20300;-63
2021/05/04 04:35:20;;;;;;;5.63;3.00;;;8.80;99.90;;;;;;5065490;28;20250;-64
2021/05/04 04:37:47;;;;;;;3.20;3.00;;;8.80;99.90;;;;;;5065931;28;20214;-62
2021/05/04 04:40:15;;;;;;;5.87;2.87;;;8.80;99.90;;;;;;5067859;28;20254;-62
2021/05/04 04:42:42;;;;;;;3.00;2.50;;;9.00;99.90;;;;;;5070234;28;20678;-63
2021/05/04 04:45:11;;;;;;;3.83;2.90;;;9.00;99.90;;;;;;5064957;28;20196;-62
2021/05/04 04:47:40;;;;;;;6.13;2.53;;;9.10;99.90;;;;;;5062028;28;20302;-63
2021/05/04 04:50:09;;;;;;;4.03;2.73;;;9.20;99.90;;;;;;5069322;28;20706;-62
2021/05/04 04:52:37;;;;;;;5.67;2.53;;;9.20;99.90;;;;;;5068643;28;20277;-62
2021/05/04 04:55:06;;;;;;;9.27;3.17;;;9.30;99.90;;;;;;5068574;28;20274;-62
2021/05/04 04:57:34;;;;;;;6.93;3.73;;;9.30;99.90;;;;;;5066145;28;20188;-63
2021/05/04 05:00:01;;;;;;;8.10;2.37;;;9.40;99.90;;;;;;5068674;28;20564;-63
2021/05/04 05:02:28;;;;;;;13.67;2.70;;;9.40;99.90;;;;;;5066390;28;20698;-62
2021/05/04 05:04:56;;;;;;;7.87;2.50;;;9.50;99.90;;;;;;5069748;28;20608;-62
2021/05/04 05:07:24;;;;;;;8.70;3.03;;;9.50;99.90;;;;;;5068778;28;20257;-63
2021/05/04 05:09:52;;;;;;;6.90;2.80;;;9.60;99.90;;;;;;5063889;28;20294;-63
2021/05/04 05:12:19;;;;;;;9.23;2.83;;;9.60;99.90;;;;;;5064570;28;20701;-62
2021/05/04 05:14:46;;;;;;;9.93;2.90;;;9.60;99.90;;;;;;5070595;28;20198;-62
2021/05/04 05:17:16;;;;;;;14.40;2.70;;;9.70;99.90;;;;;;5063943;28;21018;-63
2021/05/04 05:19:44;;;;;;;11.40;2.70;;;9.70;99.90;;;;;;5064533;28;20694;-63
2021/05/04 05:22:11;;;;;;;9.63;2.93;;;9.80;99.90;;;;;;5067819;28;20203;-63
2021/05/04 05:24:40;;;;;;;9.93;3.30;;;9.80;99.90;;;;;;5069989;28;20188;-63
2021/05/04 05:27:10;;;;;;;6.43;3.13;;;9.70;99.90;;;;;;5069454;28;20203;-63
2021/05/04 05:29:38;;;;;;;8.80;3.53;;;9.70;99.90;;;;;;5067829;28;20192;-63
2021/05/04 05:32:05;;;;;;;9.67;3.47;;;9.70;99.90;;;;;;5064218;28;20223;-63
2021/05/04 05:34:33;;;;;;;10.57;3.40;;;9.60;99.90;;;;;;5069079;28;20196;-63
2021/05/04 05:37:00;;;;;;;7.47;3.37;;;9.70;99.90;;;;;;5065652;28;20263;-62
2021/05/04 05:39:28;;;;;;;21.10;3.90;;;9.60;99.90;;;;;;5066319;28;20196;-62
2021/05/04 05:41:56;;;;;;;11.67;3.17;;;9.60;99.90;;;;;;5066741;28;20184;-62
2021/05/04 05:44:23;;;;;;;15.23;3.70;;;9.60;99.90;;;;;;5060835;28;20197;-62
2021/05/04 05:46:53;;;;;;;16.67;3.67;;;9.60;99.90;;;;;;5064746;28;20192;-63
2021/05/04 05:49:21;;;;;;;15.47;3.77;;;9.60;99.90;;;;;;5064575;28;20242;-63
2021/05/04 05:51:48;;;;;;;12.20;3.00;;;9.70;99.90;;;;;;5065399;28;20192;-63
2021/05/04 05:54:15;;;;;;;9.73;3.37;;;9.70;99.90;;;;;;5066262;28;20247;-62
2021/05/04 05:56:43;;;;;;;13.97;3.20;;;9.70;99.90;;;;;;5068316;28;20760;-63
2021/05/04 05:59:11;;;;;;;17.77;3.60;;;9.70;99.90;;;;;;5064712;28;20384;-63
2021/05/04 06:01:38;;;;;;;18.70;3.50;;;9.70;99.90;;;;;;5065496;28;20227;-63
2021/05/04 06:04:06;;;;;;;14.63;3.23;;;9.70;99.90;;;;;;5066212;28;20207;-63
2021/05/04 06:06:36;;;;;;;13.27;3.37;;;9.70;99.90;;;;;;5071206;28;20224;-63
2021/05/04 06:09:04;;;;;;;13.47;3.60;;;9.60;99.90;;;;;;5069162;28;20208;-63
2021/05/04 06:11:32;;;;;;;15.40;3.57;;;9.60;99.90;;;;;;5068985;28;20192;-63
2021/05/04 06:13:59;;;;;;;24.83;4.03;;;9.50;99.90;;;;;;5073170;28;20188;-63
2021/05/04 06:16:28;;;;;;;19.50;3.70;;;9.40;99.90;;;;;;5090245;28;20199;-63
2021/05/04 06:18:58;;;;;;;21.67;4.37;;;9.30;99.90;;;;;;5071505;28;20215;-63
2021/05/04 06:21:30;;;;;;;24.57;3.50;;;9.20;99.90;;;;;;5058892;28;20204;-62
2021/05/04 06:23:57;;;;;;;16.93;3.53;;;9.20;99.90;;;;;;5063070;28;20201;-63
2021/05/04 06:26:24;;;;;;;19.93;3.80;;;9.20;99.90;;;;;;5063650;28;20188;-63
2021/05/04 06:28:52;;;;;;;22.30;4.47;;;9.10;99.90;;;;;;5068182;28;20326;-63
2021/05/04 06:31:21;;;;;;;22.90;4.60;;;9.10;99.90;;;;;;5065341;28;20196;-63
2021/05/04 06:33:49;;;;;;;19.10;3.50;;;9.00;99.90;;;;;;5069249;28;20188;-62
2021/05/04 06:36:17;;;;;;;18.13;4.03;;;9.00;99.90;;;;;;5068848;28;20192;-63
2021/05/04 06:38:44;;;;;;;15.20;4.00;;;9.00;99.90;;;;;;5068474;28;20656;-62
2021/05/04 06:41:12;;;;;;;21.57;3.83;;;8.90;99.90;;;;;;5065654;28;20196;-62
2021/05/04 06:43:39;;;;;;;26.20;4.07;;;8.90;99.90;;;;;;5066311;28;20592;-62
2021/05/04 06:46:08;;;;;;;21.50;4.33;;;8.90;99.90;;;;;;5062180;28;20231;-62
2021/05/04 06:48:35;;;;;;;12.73;3.50;;;8.90;99.90;;;;;;5074679;28;20777;-62
2021/05/04 06:51:04;;;;;;;20.80;3.73;;;8.90;99.90;;;;;;5065651;28;20249;-62
2021/05/04 06:53:32;;;;;;;20.73;3.43;;;8.90;99.90;;;;;;5062724;28;20275;-63
2021/05/04 06:56:00;;;;;;;18.37;4.23;;;9.00;99.90;;;;;;5067517;28;20652;-63
2021/05/04 06:58:28;;;;;;;19.83;4.03;;;9.00;99.90;;;;;;5065085;28;20192;-62
2021/05/04 07:00:56;;;;;;;20.43;4.10;;;9.00;99.90;;;;;;5073105;28;20199;-62
2021/05/04 07:03:23;;;;;;;19.77;3.80;;;9.00;99.90;;;;;;5067853;28;20715;-62
2021/05/04 07:05:51;;;;;;;23.90;3.90;;;9.00;99.90;;;;;;5066999;28;20215;-62
2021/05/04 07:08:19;;;;;;;18.27;3.97;;;9.20;99.90;;;;;;5067899;28;20208;-62
2021/05/04 07:10:47;;;;;;;13.83;3.90;;;9.40;99.90;;;;;;5068219;28;20806;-62
2021/05/04 07:13:15;;;;;;;15.27;4.00;;;9.50;99.90;;;;;;5077214;28;20195;-62
2021/05/04 07:15:42;;;;;;;17.63;4.57;;;9.60;99.90;;;;;;5072003;28;20199;-62
2021/05/04 07:18:10;;;;;;;13.27;3.57;;;9.70;99.90;;;;;;5072559;28;20311;-62
2021/05/04 07:20:39;;;;;;;18.73;3.93;;;9.80;99.90;;;;;;5065015;28;20246;-62
2021/05/04 07:23:09;;;;;;;14.83;3.57;;;10.00;99.90;;;;;;5060921;28;20617;-62
2021/05/04 07:25:37;;;;;;;17.57;3.77;;;10.10;99.90;;;;;;5063447;28;20188;-62
2021/05/04 07:28:05;;;;;;;19.97;3.77;;;10.10;99.90;;;;;;5060979;28;20697;-62
2021/05/04 07:30:34;;;;;;;17.87;3.50;;;10.20;99.90;;;;;;5059348;28;20196;-62
2021/05/04 07:33:02;;;;;;;19.70;3.67;;;10.20;99.90;;;;;;5060476;28;20563;-62
2021/05/04 07:35:30;;;;;;;15.33;4.27;;;10.10;99.90;;;;;;5059553;28;20199;-62
2021/05/04 07:37:57;;;;;;;15.67;3.10;;;10.20;99.90;;;;;;5067162;28;20212;-62
2021/05/04 07:40:25;;;;;;;16.37;3.77;;;10.10;99.90;;;;;;5065168;28;20203;-62
2021/05/04 07:42:53;;;;;;;18.17;3.77;;;10.10;99.90;;;;;;5065286;28;20266;-62
2021/05/04 07:45:20;;;;;;;28.63;3.93;;;9.90;99.90;;;;;;5073912;28;20282;-62
2021/05/04 07:47:54;;;;;;;13.93;3.70;;;9.90;99.90;;;;;;5068141;28;20214;-63
2021/05/04 07:50:22;;;;;;;24.00;3.80;;;9.90;99.90;;;;;;5062143;28;20283;-62
2021/05/04 07:52:52;;;;;;;18.30;3.23;;;9.90;99.90;;;;;;5062246;28;20188;-61
2021/05/04 07:55:20;;;;;;;14.37;3.70;;;10.10;99.90;;;;;;5065035;28;20223;-62
2021/05/04 07:57:48;;;;;;;14.20;3.73;;;10.20;99.90;;;;;;5065413;28;20249;-62
2021/05/04 08:00:16;;;;;;;26.83;4.30;;;10.30;99.90;;;;;;5063116;28;20249;-63
2021/05/04 08:02:43;;;;;;;16.43;3.87;;;10.50;99.90;;;;;;5063499;28;20294;-62
2021/05/04 08:05:12;;;;;;;15.87;3.80;;;10.70;99.90;;;;;;5066466;28;20195;-62
2021/05/04 08:07:40;;;;;;;16.90;3.17;;;10.80;99.90;;;;;;5064563;28;20536;-62
2021/05/04 08:10:08;;;;;;;14.10;3.00;;;10.80;99.90;;;;;;5065969;28;20615;-62
2021/05/04 08:12:36;;;;;;;14.23;2.90;;;10.80;99.90;;;;;;5066116;28;20827;-62
2021/05/04 08:15:06;;;;;;;10.57;3.07;;;10.70;99.90;;;;;;5060661;28;20200;-62
2021/05/04 08:17:36;;;;;;;15.77;3.30;;;10.70;99.90;;;;;;5073478;28;20263;-63
2021/05/04 08:20:05;;;;;;;21.50;3.60;;;10.80;99.90;;;;;;5067444;28;20196;-62
2021/05/04 08:22:32;;;;;;;14.23;3.40;;;10.60;99.90;;;;;;5061199;28;20189;-63
2021/05/04 08:25:00;;;;;;;11.93;3.20;;;10.70;99.90;;;;;;5065270;28;20291;-63
2021/05/04 08:27:28;;;;;;;19.90;3.03;;;11.30;99.90;;;;;;5065213;28;20568;-64
2021/05/04 08:29:55;;;;;;;14.50;3.30;;;11.30;99.90;;;;;;5062620;28;20216;-63
2021/05/04 08:32:23;;;;;;;19.70;3.80;;;11.10;99.90;;;;;;5064762;28;20196;-63
2021/05/04 08:34:52;;;;;;;9.80;2.97;;;11.00;99.90;;;;;;5067018;28;20195;-63
2021/05/04 08:37:19;;;;;;;10.30;2.60;;;10.90;99.90;;;;;;5063642;28;20193;-63
2021/05/04 08:39:46;;;;;;;9.80;2.80;;;10.80;99.90;;;;;;5060701;28;20682;-63
2021/05/04 08:42:14;;;;;;;11.47;2.83;;;10.80;99.90;;;;;;5065915;28;20296;-63
2021/05/04 08:44:45;;;;;;;10.23;3.23;;;10.70;99.90;;;;;;5066815;28;20203;-63
2021/05/04 08:47:13;;;;;;;18.43;4.20;;;10.60;99.90;;;;;;5059073;28;20193;-63
2021/05/04 08:49:42;;;;;;;12.73;2.73;;;10.50;99.90;;;;;;5065060;28;20204;-63
2021/05/04 08:52:10;;;;;;;11.47;2.97;;;10.60;99.90;;;;;;5063952;28;20566;-62
2021/05/04 08:54:38;;;;;;;10.20;3.37;;;10.50;99.90;;;;;;5066316;28;20196;-62
2021/05/04 08:57:06;;;;;;;15.83;2.80;;;10.50;99.90;;;;;;5069416;28;20895;-63
2021/05/04 08:59:33;;;;;;;17.47;3.50;;;10.60;99.90;;;;;;5069205;28;20195;-63
2021/05/04 09:02:01;;;;;;;10.70;2.83;;;10.60;99.90;;;;;;5068925;28;20196;-63
2021/05/04 09:04:36;;;;;;;15.47;2.60;;;10.70;99.90;;;;;;5069719;28;20184;-62
2021/05/04 09:07:20;;;;;;;8.27;2.47;;;10.70;99.90;;;;;;5070637;28;20282;-63
2021/05/04 09:10:08;;;;;;;9.77;2.57;;;10.70;99.90;;;;;;5068883;28;20314;-63
2021/05/04 09:12:37;;;;;;;11.70;3.10;;;10.80;99.90;;;;;;5076943;28;20199;-63
2021/05/04 09:15:39;;;;;;;11.83;3.10;;;10.90;99.90;;;;;;5064697;28;20533;-63
2021/05/04 09:18:41;;;;;;;14.53;3.17;;;11.00;99.90;;;;;;5067809;28;20215;-62
2021/05/04 09:21:09;;;;;;;9.07;2.70;;;11.10;99.90;;;;;;5065129;28;20196;-63
2021/05/04 09:23:41;;;;;;;9.50;2.50;;;11.10;99.90;;;;;;5060879;28;20187;-63
2021/05/04 09:26:17;;;;;;;11.10;2.70;;;11.30;99.90;;;;;;5065989;28;20208;-63
2021/05/04 09:28:48;;;;;;;7.70;2.20;;;11.40;99.90;;;;;;5066169;28;20314;-63
2021/05/04 09:31:22;;;;;;;9.80;2.60;;;11.40;99.90;;;;;;5065240;28;20203;-63
2021/05/04 09:33:50;;;;;;;7.70;2.23;;;11.70;99.90;;;;;;5072529;28;20194;-63
2021/05/04 09:36:42;;;;;;;12.23;2.43;;;12.10;99.90;;;;;;5068764;28;20195;-63
2021/05/04 09:39:12;;;;;;;3.97;1.80;;;12.60;99.90;;;;;;5067455;28;20287;-64
2021/05/04 09:41:39;;;;;;;5.10;2.20;;;12.50;99.90;;;;;;5067669;28;20254;-64
2021/05/04 09:44:07;;;;;;;7.27;2.20;;;12.70;99.90;;;;;;5069015;28;20345;-63
2021/05/04 09:46:46;;;;;;;6.10;2.40;;;13.20;99.90;;;;;;5072042;28;20659;-63
2021/05/04 09:49:30;;;;;;;6.53;2.00;;;14.00;99.90;;;;;;5063041;28;20269;-63
2021/05/04 09:52:21;;;;;;;3.93;1.83;;;13.60;99.90;;;;;;5065066;28;20280;-64
2021/05/04 09:54:49;;;;;;;6.67;2.33;;;13.90;99.90;;;;;;5067584;28;20598;-64
2021/05/04 09:57:38;;;;;;;13.40;2.47;;;13.60;99.90;;;;;;5061548;28;20195;-63
2021/05/04 10:00:08;;;;;;;10.67;2.60;;;13.30;99.90;;;;;;5068453;28;20246;-64
2021/05/04 10:02:37;;;;;;;5.20;1.90;;;13.80;99.90;;;;;;5064786;28;20200;-64
2021/05/04 10:05:07;;;;;;;12.33;2.43;;;14.00;99.90;;;;;;5064143;28;20669;-63
2021/05/04 10:07:36;;;;;;;7.37;2.37;;;13.60;99.90;;;;;;5063828;28;20614;-63
2021/05/04 10:10:07;;;;;;;5.97;2.23;;;13.00;99.90;;;;;;5067954;28;20220;-64
2021/05/04 10:12:37;;;;;;;6.60;2.23;;;12.60;99.90;;;;;;5066513;28;20237;-63
2021/05/04 10:15:06;;;;;;;8.80;2.10;;;12.50;99.90;;;;;;5064689;28;20625;-63
2021/05/04 10:17:35;;;;;;;11.80;2.50;;;12.20;99.90;;;;;;5060177;28;20231;-63
2021/05/04 10:20:06;;;;;;;9.60;1.97;;;11.90;99.90;;;;;;5067347;28;20246;-63
2021/05/04 10:22:35;;;;;;;7.83;2.60;;;11.70;99.90;;;;;;5066173;28;20195;-63
2021/05/04 10:25:05;;;;;;;13.60;2.23;;;11.60;99.90;;;;;;5066543;28;20188;-63
2021/05/04 10:27:34;;;;;;;5.43;2.47;;;11.60;99.90;;;;;;5066753;28;20709;-64
2021/05/04 10:30:04;;;;;;;6.70;2.50;;;11.60;99.90;;;;;;5068311;28;20208;-63
2021/05/04 10:32:49;;;;;;;3.47;1.87;;;11.60;99.90;;;;;;5064199;28;20216;-63
2021/05/04 10:35:45;;;;;;;6.00;2.20;;;11.50;99.90;;;;;;5068966;28;20286;-62
2021/05/04 10:38:14;;;;;;;4.33;2.23;;;11.50;99.90;;;;;;5064989;28;20196;-63
2021/05/04 10:40:44;;;;;;;5.87;1.87;;;11.70;99.90;;;;;;5066142;28;20191;-63
2021/05/04 10:43:41;;;;;;;5.67;2.20;;;11.80;99.90;;;;;;5065292;28;21075;-63
2021/05/04 10:46:35;;;;;;;6.60;2.03;;;11.70;99.90;;;;;;5059318;28;20608;-64
2021/05/04 10:49:03;;;;;;;4.77;2.40;;;11.60;99.90;;;;;;5063039;28;20216;-64
2021/05/04 10:51:50;;;;;;;8.43;2.50;;;11.50;99.90;;;;;;5063180;28;20188;-63
2021/05/04 10:54:18;;;;;;;10.70;2.67;;;11.60;99.90;;;;;;5061349;28;20692;-63
2021/05/04 10:56:49;;;;;;;5.53;2.20;;;11.60;99.90;;;;;;5065690;28;20285;-63
2021/05/04 10:59:41;;;;;;;8.10;2.53;;;11.70;99.90;;;;;;5065454;28;20226;-64
2021/05/04 11:02:27;;;;;;;8.13;2.10;;;11.70;99.90;;;;;;5067359;28;20250;-63
2021/05/04 11:04:57;;;;;;;9.83;2.40;;;11.80;99.90;;;;;;5078299;28;20223;-63
2021/05/04 11:07:53;;;;;;;3.83;2.40;;;12.10;99.90;;;;;;5066909;28;20637;-63
2021/05/04 11:10:24;;;;;;;4.90;2.13;;;12.50;99.90;;;;;;5063918;28;20296;-63
2021/05/04 11:12:53;;;;;;;10.03;2.43;;;13.00;99.90;;;;;;5066736;28;20512;-64
2021/05/04 11:15:22;;;;;;;4.47;1.80;;;13.50;99.90;;;;;;5063813;28;20722;-63
2021/05/04 11:17:49;;;;;;;7.10;2.40;;;13.80;99.90;;;;;;5065303;28;20216;-63
2021/05/04 11:20:35;;;;;;;7.17;2.40;;;14.10;99.90;;;;;;5067167;28;20655;-63
2021/05/04 11:23:04;;;;;;;4.73;1.90;;;13.90;99.90;;;;;;5064639;28;20218;-63
2021/05/04 11:25:36;;;;;;;7.50;2.50;;;13.70;99.90;;;;;;5065345;28;20280;-63
2021/05/04 11:28:06;;;;;;;7.03;2.10;;;14.10;99.90;;;;;;5065125;28;20196;-63
2021/05/04 11:30:38;;;;;;;3.00;1.90;;;14.00;99.90;;;;;;5065335;28;20693;-63
2021/05/04 11:33:25;;;;;;;6.40;1.90;;;14.50;99.90;;;;;;5066170;28;20609;-64
2021/05/04 11:35:53;;;;;;;5.63;1.60;;;14.30;99.90;;;;;;5065443;28;20200;-63
2021/05/04 11:38:22;;;;;;;2.93;1.90;;;14.00;99.90;;;;;;5065284;28;20236;-64
2021/05/04 11:40:50;;;;;;;8.43;2.20;;;14.20;99.90;;;;;;5065719;28;20210;-63
2021/05/04 11:43:20;;;;;;;6.17;2.20;;;13.90;99.90;;;;;;5067899;28;20224;-63
2021/05/04 11:45:48;;;;;;;2.17;1.80;;;13.70;99.90;;;;;;5074860;28;20192;-63
2021/05/04 11:48:17;;;;;;;4.67;2.10;;;13.50;99.90;;;;;;5071545;28;20817;-63
2021/05/04 11:50:47;;;;;;;4.83;2.03;;;13.50;99.90;;;;;;5067611;28;20196;-63
2021/05/04 11:53:16;;;;;;;8.77;2.37;;;13.50;99.90;;;;;;5053780;28;20724;-63
2021/05/04 11:55:45;;;;;;;5.87;2.17;;;13.70;99.90;;;;;;5056070;28;20197;-63
2021/05/04 11:58:16;;;;;;;9.70;2.53;;;13.80;99.90;;;;;;5067328;28;20647;-63
2021/05/04 12:00:45;;;;;;;3.53;2.27;;;13.90;99.90;;;;;;5062137;28;20196;-63
2021/05/04 12:03:14;;;;;;;9.77;2.37;;;14.00;99.90;;;;;;5067295;28;20195;-64
2021/05/04 12:05:44;;;;;;;6.27;2.00;;;14.10;99.90;;;;;;5067389;28;20196;-63
2021/05/04 12:08:12;;;;;;;5.03;2.30;;;13.80;99.90;;;;;;5064257;28;20188;-63
2021/05/04 12:10:41;;;;;;;5.67;2.10;;;13.70;99.90;;;;;;5066310;28;20942;-63
2021/05/04 12:13:10;;;;;;;9.10;2.47;;;13.60;99.90;;;;;;5062003;28;20208;-63
2021/05/04 12:15:39;;;;;;;5.50;2.00;;;13.50;99.90;;;;;;5061776;28;20184;-63
2021/05/04 12:18:11;;;;;;;3.67;1.90;;;13.70;99.90;;;;;;5068021;28;20228;-63
2021/05/04 12:20:44;;;;;;;8.47;2.50;;;13.90;99.90;;;;;;5065780;28;20196;-63
2021/05/04 12:23:13;;;;;;;4.53;1.73;;;14.50;99.90;;;;;;5066269;28;20195;-63
2021/05/04 12:25:52;;;;;;;7.00;2.30;;;14.50;99.90;;;;;;5058804;28;20220;-64
2021/05/04 12:28:24;;;;;;;5.43;1.90;;;14.60;99.90;;;;;;5063580;28;20230;-64
2021/05/04 12:30:59;;;;;;;5.43;2.03;;;14.40;99.90;;;;;;5065179;28;20249;-63
2021/05/04 12:33:28;;;;;;;5.27;2.13;;;14.10;99.90;;;;;;5071696;28;20191;-64
2021/05/04 12:36:02;;;;;;;2.73;1.83;;;13.80;99.90;;;;;;5071681;28;20204;-64
2021/05/04 12:38:39;;;;;;;7.97;2.07;;;13.60;99.90;;;;;;5072839;28;20187;-64
2021/05/04 12:41:11;;;;;;;6.63;2.10;;;13.30;99.90;;;;;;5068349;28;20191;-64
2021/05/04 12:43:42;;;;;;;6.20;2.10;;;13.40;99.90;;;;;;5066573;28;20249;-64
2021/05/04 12:46:13;;;;;;;9.20;2.20;;;13.70;99.90;;;;;;5067311;28;20676;-64
2021/05/04 12:48:43;;;;;;;7.60;2.20;;;14.00;99.90;;;;;;5067952;28;20212;-64
2021/05/04 12:51:13;;;;;;;4.10;1.70;;;14.40;99.90;;;;;;5065904;28;20246;-64
2021/05/04 12:53:45;;;;;;;4.40;2.00;;;14.30;99.90;;;;;;5069785;28;20200;-64
2021/05/04 12:56:15;;;;;;;6.07;2.00;;;14.30;99.90;;;;;;5068837;28;20246;-64
2021/05/04 12:59:00;;;;;;;3.07;1.80;;;14.20;99.90;;;;;;5069025;28;20616;-64
2021/05/04 13:01:39;;;;;;;4.97;1.67;;;14.10;99.90;;;;;;5065909;28;20243;-64
2021/05/04 13:04:14;;;;;;;3.20;2.00;;;13.90;99.90;;;;;;5066781;28;20278;-65